Terminal Aerodrome Forecast
Issued by NWS Cleveland, OH

Home | Current Version | Previous Version | Text Only | Print | Product List | Glossary Off
Versions: 1 2 3 4 5 6 7 8 9 10 11 12 13 14 15 16 17 18 19 20 21 22 23 24 25 26 27 28 29 30 31

000
FTUS41 KCLE 212300 AAA
TAFMFD
TAF AMD
KMFD 212355Z 2200/2224 35012KT 5SM -RA BR BKN008 OVC012
      TEMPO 2201/2205 2SM -DZ BR
     FM220600 35010KT P6SM OVC012
     FM221700 35008KT P6SM OVC025
     FM222100 35008KT P6SM BKN035=

USA.gov is the U.S. government's official web portal to all federal, state and local government web resources and services.